Time;durP1;ratioP1;P1;durP2;ratioP2;P2;SDS_P1;SDS_P2;PMS_P1;PMS_P2;Temp;Humidity;BMP_temperature;BMP_pressure;BME280_temperature;BME280_humidity;BME280_pressure;Samples;Min_cycle;Max_cycle;Signal;HPM_P1;HPM_P2
2022/03/11 00:00:16;;;;;;;7.38;3.90;;;;;;;;;;5063922;28;20052;-68
2022/03/11 00:02:42;;;;;;;6.78;3.80;;;;;;;;;;5064675;28;20048;-68
2022/03/11 00:05:08;;;;;;;7.00;3.85;;;;;;;;;;5064349;28;20557;-67
2022/03/11 00:07:34;;;;;;;7.53;4.43;;;;;;;;;;5065397;28;20056;-68
2022/03/11 00:10:00;;;;;;;8.23;4.30;;;;;;;;;;5064220;28;20071;-68
2022/03/11 00:12:26;;;;;;;7.13;4.00;;;;;;;;;;5064427;28;20036;-68
2022/03/11 00:14:52;;;;;;;8.43;4.25;;;;;;;;;;5065228;28;20545;-68
2022/03/11 00:17:18;;;;;;;7.80;3.78;;;;;;;;;;5047724;28;20116;-68
2022/03/11 00:19:44;;;;;;;7.60;3.80;;;;;;;;;;5064902;28;20044;-68
2022/03/11 00:22:11;;;;;;;7.38;3.63;;;;;;;;;;5063802;28;20132;-68
2022/03/11 00:24:37;;;;;;;7.22;3.92;;;;;;;;;;5064842;28;20063;-68
2022/03/11 00:27:03;;;;;;;7.95;3.80;;;;;;;;;;5063520;28;20052;-68
2022/03/11 00:29:29;;;;;;;7.70;4.10;;;;;;;;;;5064583;28;20601;-68
2022/03/11 00:31:55;;;;;;;7.00;3.92;;;;;;;;;;5063787;28;20527;-68
2022/03/11 00:34:21;;;;;;;8.18;4.43;;;;;;;;;;5063653;28;20049;-67
2022/03/11 00:36:47;;;;;;;8.15;4.53;;;;;;;;;;5062764;28;20048;-67
2022/03/11 00:39:13;;;;;;;8.27;4.10;;;;;;;;;;5048111;28;20095;-68
2022/03/11 00:41:39;;;;;;;8.15;3.75;;;;;;;;;;5063861;28;20427;-67
2022/03/11 00:44:05;;;;;;;6.72;3.70;;;;;;;;;;5064107;28;20051;-67
2022/03/11 00:46:31;;;;;;;7.10;3.65;;;;;;;;;;5045961;28;20040;-68
2022/03/11 00:48:57;;;;;;;7.93;3.95;;;;;;;;;;5065286;28;20049;-67
2022/03/11 00:51:23;;;;;;;7.13;3.70;;;;;;;;;;5051828;28;20047;-68
2022/03/11 00:53:49;;;;;;;6.90;3.63;;;;;;;;;;5044126;28;20442;-68
2022/03/11 00:56:15;;;;;;;9.00;4.13;;;;;;;;;;5054252;28;20048;-68
2022/03/11 00:58:41;;;;;;;8.98;4.18;;;;;;;;;;5064622;28;20044;-68
2022/03/11 01:01:07;;;;;;;7.80;3.80;;;;;;;;;;5063297;28;20051;-67
2022/03/11 01:03:34;;;;;;;7.40;3.75;;;;;;;;;;5047183;28;20509;-68
2022/03/11 01:06:00;;;;;;;7.80;3.85;;;;;;;;;;5063174;28;20513;-68
2022/03/11 01:08:26;;;;;;;8.30;4.00;;;;;;;;;;5047147;28;20041;-68
2022/03/11 01:10:52;;;;;;;7.88;3.63;;;;;;;;;;5063300;28;20046;-68
2022/03/11 01:13:18;;;;;;;9.10;4.07;;;;;;;;;;5063625;28;20072;-68
2022/03/11 01:15:44;;;;;;;7.45;3.97;;;;;;;;;;5046607;28;20665;-68
2022/03/11 01:18:10;;;;;;;7.40;3.80;;;;;;;;;;5049765;28;20047;-68
2022/03/11 01:20:36;;;;;;;7.25;3.63;;;;;;;;;;5029416;28;20106;-68
2022/03/11 01:23:01;;;;;;;8.48;3.80;;;;;;;;;;5064707;28;20043;-67
2022/03/11 01:25:28;;;;;;;7.97;4.05;;;;;;;;;;5062236;28;20061;-67
2022/03/11 01:27:54;;;;;;;6.30;3.90;;;;;;;;;;5063020;28;20055;-67
2022/03/11 01:30:20;;;;;;;7.25;4.03;;;;;;;;;;5062103;28;20029;-68
2022/03/11 01:32:46;;;;;;;7.25;4.00;;;;;;;;;;5061988;28;20048;-68
2022/03/11 01:35:12;;;;;;;7.78;3.60;;;;;;;;;;5062856;28;20040;-68
2022/03/11 01:37:38;;;;;;;7.25;3.92;;;;;;;;;;5063475;28;20608;-68
2022/03/11 01:40:04;;;;;;;7.32;4.13;;;;;;;;;;5063431;28;20085;-68
2022/03/11 01:42:34;;;;;;;7.78;4.13;;;;;;;;;;5063178;28;20044;-68
2022/03/11 01:45:00;;;;;;;7.30;3.88;;;;;;;;;;5044783;28;20098;-68
2022/03/11 01:47:26;;;;;;;8.68;3.83;;;;;;;;;;5043762;28;20055;-68
2022/03/11 01:49:52;;;;;;;8.20;4.25;;;;;;;;;;5043493;28;20045;-68
2022/03/11 01:52:18;;;;;;;9.02;4.10;;;;;;;;;;5061940;28;20062;-68
2022/03/11 01:54:45;;;;;;;7.72;3.85;;;;;;;;;;5064035;28;20051;-68
2022/03/11 01:57:12;;;;;;;8.18;4.53;;;;;;;;;;5062096;28;20135;-68
2022/03/11 01:59:38;;;;;;;7.30;4.10;;;;;;;;;;5063101;28;20720;-67
2022/03/11 02:02:05;;;;;;;8.27;4.10;;;;;;;;;;5061754;28;20052;-68
2022/03/11 02:04:31;;;;;;;9.60;4.80;;;;;;;;;;5063126;28;20389;-68
2022/03/11 02:06:57;;;;;;;8.32;4.43;;;;;;;;;;5063002;28;20040;-68
2022/03/11 02:09:24;;;;;;;8.95;4.75;;;;;;;;;;5046224;28;20047;-68
2022/03/11 02:11:50;;;;;;;8.23;4.35;;;;;;;;;;5061904;28;20498;-68
2022/03/11 02:14:16;;;;;;;8.18;4.55;;;;;;;;;;5063418;28;20102;-67
2022/03/11 02:16:42;;;;;;;8.57;4.55;;;;;;;;;;5047410;28;20053;-68
2022/03/11 02:19:09;;;;;;;8.50;4.55;;;;;;;;;;5042663;28;20080;-68
2022/03/11 02:21:45;;;;;;;11.13;5.10;;;;;;;;;;5055975;28;20052;-68
2022/03/11 02:24:12;;;;;;;8.80;5.53;;;;;;;;;;5063219;28;20681;-68
2022/03/11 02:26:38;;;;;;;8.65;5.13;;;;;;;;;;5060905;28;20468;-68
2022/03/11 02:29:06;;;;;;;9.57;4.60;;;;;;;;;;5060145;28;20143;-68
2022/03/11 02:31:32;;;;;;;8.52;5.00;;;;;;;;;;5059716;28;20056;-68
2022/03/11 02:33:59;;;;;;;8.50;4.93;;;;;;;;;;5060519;28;20036;-68
2022/03/11 02:36:25;;;;;;;8.70;5.07;;;;;;;;;;5059416;28;20047;-68
2022/03/11 02:38:51;;;;;;;10.32;4.90;;;;;;;;;;5060983;28;20051;-68
2022/03/11 02:41:18;;;;;;;12.00;5.20;;;;;;;;;;5061324;28;20111;-68
2022/03/11 02:43:44;;;;;;;11.32;5.15;;;;;;;;;;5047087;28;20049;-68
2022/03/11 02:46:10;;;;;;;9.98;5.68;;;;;;;;;;5026232;28;20044;-68
2022/03/11 02:48:36;;;;;;;8.63;5.68;;;;;;;;;;5040649;28;20044;-68
2022/03/11 02:51:02;;;;;;;9.65;6.07;;;;;;;;;;5049275;28;20037;-68
2022/03/11 02:53:28;;;;;;;10.55;6.53;;;;;;;;;;5062034;28;20032;-68
2022/03/11 02:55:54;;;;;;;9.38;5.68;;;;;;;;;;5059688;28;20677;-68
2022/03/11 02:58:21;;;;;;;10.93;5.97;;;;;;;;;;5061096;28;20048;-68
2022/03/11 03:00:47;;;;;;;9.07;5.15;;;;;;;;;;5046902;28;20045;-68
2022/03/11 03:03:13;;;;;;;10.30;6.15;;;;;;;;;;5064553;28;20076;-68
2022/03/11 03:05:39;;;;;;;10.63;6.45;;;;;;;;;;5063426;28;20082;-68
2022/03/11 03:08:05;;;;;;;10.15;5.72;;;;;;;;;;5065759;28;20068;-68
2022/03/11 03:10:31;;;;;;;10.98;6.72;;;;;;;;;;5065145;28;20505;-68
2022/03/11 03:12:57;;;;;;;9.88;6.30;;;;;;;;;;5067104;28;20075;-68
2022/03/11 03:15:23;;;;;;;11.00;7.10;;;;;;;;;;5066270;28;20029;-68
2022/03/11 03:17:49;;;;;;;10.25;6.47;;;;;;;;;;5066125;28;20049;-68
2022/03/11 03:20:16;;;;;;;9.77;6.18;;;;;;;;;;5065331;28;20051;-67
2022/03/11 03:22:42;;;;;;;12.95;7.53;;;;;;;;;;5049249;28;20399;-68
2022/03/11 03:25:09;;;;;;;12.13;7.57;;;;;;;;;;5064698;28;20557;-68
2022/03/11 03:27:35;;;;;;;11.65;6.80;;;;;;;;;;5064066;28;20101;-68
2022/03/11 03:30:01;;;;;;;12.23;7.00;;;;;;;;;;5048430;28;20072;-68
2022/03/11 03:32:27;;;;;;;11.95;7.15;;;;;;;;;;5066365;28;20628;-68
2022/03/11 03:34:53;;;;;;;11.60;7.05;;;;;;;;;;5065714;28;20040;-68
2022/03/11 03:37:19;;;;;;;12.45;7.05;;;;;;;;;;5064582;28;20123;-68
2022/03/11 03:39:45;;;;;;;12.57;7.63;;;;;;;;;;5065799;28;20048;-68
2022/03/11 03:42:11;;;;;;;11.50;7.18;;;;;;;;;;5063925;28;20044;-68
2022/03/11 03:44:37;;;;;;;12.32;7.47;;;;;;;;;;5065482;28;20048;-68
2022/03/11 03:47:04;;;;;;;15.73;8.23;;;;;;;;;;5063873;28;20106;-67
2022/03/11 03:49:30;;;;;;;12.93;8.18;;;;;;;;;;5065625;28;20040;-67
2022/03/11 03:51:56;;;;;;;11.48;7.15;;;;;;;;;;5064001;28;20047;-67
2022/03/11 03:54:22;;;;;;;13.10;8.50;;;;;;;;;;5065627;28;20032;-68
2022/03/11 03:56:48;;;;;;;12.75;8.40;;;;;;;;;;5065153;28;20122;-68
2022/03/11 03:59:15;;;;;;;13.05;8.45;;;;;;;;;;5064875;28;20036;-68
2022/03/11 04:01:42;;;;;;;14.40;8.63;;;;;;;;;;5064478;28;20050;-68
2022/03/11 04:04:09;;;;;;;12.30;8.52;;;;;;;;;;5066520;28;20469;-68
2022/03/11 04:06:36;;;;;;;12.50;8.18;;;;;;;;;;5065795;28;20131;-68
2022/03/11 04:09:03;;;;;;;13.15;8.40;;;;;;;;;;5065427;28;20044;-68
2022/03/11 04:11:29;;;;;;;12.63;8.38;;;;;;;;;;5051374;28;20036;-67
2022/03/11 04:13:56;;;;;;;13.95;8.30;;;;;;;;;;5044759;28;20037;-68
2022/03/11 04:16:22;;;;;;;13.43;8.70;;;;;;;;;;5057488;28;20041;-67
2022/03/11 04:18:49;;;;;;;13.75;8.90;;;;;;;;;;5064619;28;20052;-68
2022/03/11 04:21:15;;;;;;;14.48;8.77;;;;;;;;;;5063070;28;20080;-68
2022/03/11 04:23:41;;;;;;;15.38;8.70;;;;;;;;;;5064129;28;20052;-67
2022/03/11 04:26:07;;;;;;;14.23;9.20;;;;;;;;;;5063087;28;20708;-68
2022/03/11 04:28:33;;;;;;;14.40;9.23;;;;;;;;;;5064115;28;20629;-69
2022/03/11 04:31:00;;;;;;;13.15;8.93;;;;;;;;;;5062190;28;20048;-67
2022/03/11 04:33:26;;;;;;;14.02;8.05;;;;;;;;;;5064184;28;20032;-68
2022/03/11 04:35:52;;;;;;;12.80;8.45;;;;;;;;;;5062906;28;20043;-67
2022/03/11 04:38:19;;;;;;;14.52;9.18;;;;;;;;;;5065015;28;20032;-68
2022/03/11 04:40:44;;;;;;;15.30;9.50;;;;;;;;;;5063766;28;20077;-68
2022/03/11 04:43:10;;;;;;;14.32;9.02;;;;;;;;;;5064003;28;20148;-67
2022/03/11 04:45:36;;;;;;;15.50;9.35;;;;;;;;;;5063990;28;20047;-69
2022/03/11 04:48:03;;;;;;;15.52;9.43;;;;;;;;;;5063707;28;20045;-67
2022/03/11 04:50:29;;;;;;;14.13;8.63;;;;;;;;;;5064218;28;20076;-68
2022/03/11 04:52:56;;;;;;;15.10;9.73;;;;;;;;;;5064443;28;20144;-67
2022/03/11 04:55:22;;;;;;;14.60;9.07;;;;;;;;;;5063418;28;20036;-67
2022/03/11 04:57:48;;;;;;;13.35;9.27;;;;;;;;;;5064828;28;20632;-68
2022/03/11 05:00:15;;;;;;;13.63;9.23;;;;;;;;;;5063288;28;20045;-68
2022/03/11 05:02:44;;;;;;;14.07;9.88;;;;;;;;;;5063948;28;20437;-68
2022/03/11 05:05:11;;;;;;;16.20;9.82;;;;;;;;;;5063211;28;20128;-68
2022/03/11 05:07:37;;;;;;;15.88;9.18;;;;;;;;;;5064171;28;20493;-68
2022/03/11 05:10:04;;;;;;;14.48;9.07;;;;;;;;;;5062605;28;20036;-67
2022/03/11 05:12:30;;;;;;;14.15;9.48;;;;;;;;;;5063747;28;20036;-67
2022/03/11 05:14:56;;;;;;;14.07;9.60;;;;;;;;;;5063175;28;20395;-68
2022/03/11 05:17:22;;;;;;;14.77;9.25;;;;;;;;;;5062350;28;20055;-68
2022/03/11 05:19:49;;;;;;;14.80;9.13;;;;;;;;;;5047212;28;20060;-68
2022/03/11 05:22:15;;;;;;;15.48;9.18;;;;;;;;;;5061527;28;20044;-68
2022/03/11 05:24:41;;;;;;;16.65;9.65;;;;;;;;;;5063309;28;20106;-68
2022/03/11 05:27:07;;;;;;;13.23;8.70;;;;;;;;;;5061301;28;20106;-68
2022/03/11 05:29:34;;;;;;;13.95;9.30;;;;;;;;;;5062986;28;20045;-67
2022/03/11 05:32:00;;;;;;;14.95;9.98;;;;;;;;;;5062602;28;20079;-68
2022/03/11 05:34:26;;;;;;;14.07;9.38;;;;;;;;;;5063300;28;20036;-67
2022/03/11 05:36:53;;;;;;;14.85;9.77;;;;;;;;;;5045291;28;20041;-67
2022/03/11 05:39:19;;;;;;;14.18;9.40;;;;;;;;;;5063425;28;20048;-68
2022/03/11 05:41:46;;;;;;;14.85;9.30;;;;;;;;;;5062299;28;20059;-68
2022/03/11 05:44:12;;;;;;;14.32;10.05;;;;;;;;;;5063001;28;20119;-67
2022/03/11 05:46:38;;;;;;;14.52;9.90;;;;;;;;;;5062806;28;20051;-67
2022/03/11 05:49:05;;;;;;;14.95;9.35;;;;;;;;;;5063379;28;20198;-67
2022/03/11 05:51:31;;;;;;;14.27;9.60;;;;;;;;;;5062389;28;20051;-67
2022/03/11 05:53:57;;;;;;;14.98;9.55;;;;;;;;;;5064868;28;20621;-68
2022/03/11 05:56:23;;;;;;;14.73;9.73;;;;;;;;;;5062190;28;20045;-68
2022/03/11 05:58:50;;;;;;;15.70;10.27;;;;;;;;;;5064832;28;20044;-67
2022/03/11 06:01:17;;;;;;;14.52;9.25;;;;;;;;;;5061983;28;20056;-68
2022/03/11 06:03:45;;;;;;;15.23;10.50;;;;;;;;;;5063000;28;20101;-68
2022/03/11 06:06:12;;;;;;;15.38;9.55;;;;;;;;;;5062041;28;20044;-67
2022/03/11 06:08:38;;;;;;;13.68;9.23;;;;;;;;;;5063079;28;20098;-67
2022/03/11 06:11:04;;;;;;;15.93;10.32;;;;;;;;;;5062023;28;20044;-67
2022/03/11 06:13:30;;;;;;;13.77;9.38;;;;;;;;;;5062743;28;20123;-67
2022/03/11 06:15:56;;;;;;;15.13;10.02;;;;;;;;;;5061804;28;20525;-68
2022/03/11 06:18:22;;;;;;;15.32;9.95;;;;;;;;;;5063240;28;20048;-68
2022/03/11 06:20:48;;;;;;;15.02;9.65;;;;;;;;;;5061586;28;20040;-68
2022/03/11 06:23:14;;;;;;;16.05;10.05;;;;;;;;;;5063135;28;20511;-67
2022/03/11 06:25:42;;;;;;;15.88;9.70;;;;;;;;;;5061774;28;20042;-68
2022/03/11 06:28:08;;;;;;;15.95;10.38;;;;;;;;;;5062726;28;20122;-67
2022/03/11 06:30:37;;;;;;;18.70;10.43;;;;;;;;;;5060519;28;20459;-68
2022/03/11 06:33:03;;;;;;;20.35;10.95;;;;;;;;;;5041570;28;20073;-68
2022/03/11 06:35:29;;;;;;;14.45;9.63;;;;;;;;;;5051504;28;20544;-67
2022/03/11 06:37:55;;;;;;;17.10;9.88;;;;;;;;;;5049228;28;20044;-67
2022/03/11 06:40:21;;;;;;;14.70;9.93;;;;;;;;;;5052423;28;20071;-68
2022/03/11 06:42:48;;;;;;;16.83;10.23;;;;;;;;;;5045353;28;20037;-67
2022/03/11 06:45:15;;;;;;;15.27;10.52;;;;;;;;;;5049279;28;22206;-68
2022/03/11 06:47:41;;;;;;;15.27;9.27;;;;;;;;;;5054732;28;20541;-68
2022/03/11 06:50:08;;;;;;;15.57;10.50;;;;;;;;;;5050266;28;20784;-67
2022/03/11 06:52:35;;;;;;;15.95;10.68;;;;;;;;;;5066414;28;20055;-68
2022/03/11 06:55:01;;;;;;;16.75;11.02;;;;;;;;;;5048718;28;20101;-67
2022/03/11 06:57:27;;;;;;;15.88;10.07;;;;;;;;;;5066266;28;20520;-68
2022/03/11 06:59:53;;;;;;;17.80;10.85;;;;;;;;;;5045181;28;20037;-68
2022/03/11 07:02:19;;;;;;;16.95;10.40;;;;;;;;;;5043858;28;20040;-68
2022/03/11 07:04:45;;;;;;;16.75;10.90;;;;;;;;;;5053583;28;21077;-68
2022/03/11 07:07:11;;;;;;;16.63;10.13;;;;;;;;;;5029116;28;20750;-68
2022/03/11 07:09:37;;;;;;;15.35;10.73;;;;;;;;;;5050397;28;20603;-68
2022/03/11 07:12:03;;;;;;;15.70;11.07;;;;;;;;;;5063540;28;20037;-68
2022/03/11 07:14:35;;;;;;;15.38;10.43;;;;;;;;;;5064871;28;20048;-68
2022/03/11 07:17:10;;;;;;;16.02;10.85;;;;;;;;;;5064041;28;20123;-68
2022/03/11 07:19:36;;;;;;;17.58;10.85;;;;;;;;;;5064461;28;20105;-68
2022/03/11 07:22:03;;;;;;;16.40;9.80;;;;;;;;;;5056830;28;20045;-67
2022/03/11 07:24:30;;;;;;;18.08;10.45;;;;;;;;;;5046127;28;20057;-67
2022/03/11 07:26:56;;;;;;;16.33;10.77;;;;;;;;;;5061070;28;20079;-68
2022/03/11 07:29:22;;;;;;;14.05;9.98;;;;;;;;;;5066017;28;20355;-67
2022/03/11 07:31:48;;;;;;;16.13;9.75;;;;;;;;;;5066366;28;20044;-68
2022/03/11 07:34:14;;;;;;;16.65;10.35;;;;;;;;;;5065291;28;20041;-68
2022/03/11 07:36:40;;;;;;;16.55;9.90;;;;;;;;;;5048508;28;20627;-68
2022/03/11 07:39:08;;;;;;;18.52;11.43;;;;;;;;;;5065551;28;20048;-68
2022/03/11 07:41:34;;;;;;;17.30;11.35;;;;;;;;;;5063661;28;20533;-67
2022/03/11 07:44:01;;;;;;;16.67;11.18;;;;;;;;;;5047690;28;20044;-67
2022/03/11 07:46:28;;;;;;;14.85;10.65;;;;;;;;;;5038363;28;20383;-67
2022/03/11 07:48:55;;;;;;;15.45;10.38;;;;;;;;;;5045577;28;20052;-68
2022/03/11 07:51:21;;;;;;;16.23;10.60;;;;;;;;;;5057895;28;20036;-68
2022/03/11 07:53:47;;;;;;;15.32;10.23;;;;;;;;;;5069271;28;20036;-68
2022/03/11 07:56:15;;;;;;;15.40;10.43;;;;;;;;;;5056778;28;20045;-67
2022/03/11 07:58:41;;;;;;;19.08;10.93;;;;;;;;;;5073596;28;20512;-67
2022/03/11 08:01:11;;;;;;;16.30;10.02;;;;;;;;;;5068828;28;20041;-67
2022/03/11 08:03:38;;;;;;;15.00;10.45;;;;;;;;;;5055136;28;20040;-67
2022/03/11 08:06:04;;;;;;;17.48;11.05;;;;;;;;;;5054994;28;20768;-68
2022/03/11 08:08:30;;;;;;;15.07;10.52;;;;;;;;;;5066540;28;20044;-68
2022/03/11 08:10:56;;;;;;;15.60;10.52;;;;;;;;;;5065562;28;20550;-68
2022/03/11 08:13:23;;;;;;;16.70;10.35;;;;;;;;;;5064544;28;20032;-67
2022/03/11 08:15:49;;;;;;;16.40;10.93;;;;;;;;;;5063471;28;20102;-67
2022/03/11 08:18:15;;;;;;;15.52;10.32;;;;;;;;;;5065569;28;20611;-67
2022/03/11 08:20:42;;;;;;;14.73;10.07;;;;;;;;;;5063493;28;20040;-68
2022/03/11 08:23:08;;;;;;;14.82;10.05;;;;;;;;;;5065005;28;20045;-68
2022/03/11 08:25:34;;;;;;;17.27;10.95;;;;;;;;;;5047144;28;20513;-68
2022/03/11 08:28:00;;;;;;;14.55;9.77;;;;;;;;;;5047413;28;20048;-68
2022/03/11 08:30:26;;;;;;;16.58;11.05;;;;;;;;;;5065250;28;20091;-68
2022/03/11 08:32:53;;;;;;;15.75;10.95;;;;;;;;;;5064286;28;20040;-68
2022/03/11 08:35:19;;;;;;;15.43;9.95;;;;;;;;;;5064573;28;20121;-68
2022/03/11 08:37:45;;;;;;;15.77;10.05;;;;;;;;;;5064479;28;20055;-67
2022/03/11 08:40:11;;;;;;;15.93;10.55;;;;;;;;;;5063722;28;20113;-68
2022/03/11 08:42:38;;;;;;;16.35;10.52;;;;;;;;;;5064097;28;20528;-68
2022/03/11 08:45:04;;;;;;;15.70;10.55;;;;;;;;;;5064594;28;20072;-68
2022/03/11 08:47:31;;;;;;;15.85;10.68;;;;;;;;;;5063969;28;20044;-67
2022/03/11 08:49:57;;;;;;;18.58;10.63;;;;;;;;;;5063890;28;20040;-67
2022/03/11 08:52:26;;;;;;;15.38;10.65;;;;;;;;;;5064442;28;20044;-67
2022/03/11 08:54:52;;;;;;;15.13;10.10;;;;;;;;;;5064180;28;20036;-67
2022/03/11 08:57:19;;;;;;;16.85;10.65;;;;;;;;;;5062858;28;20044;-67
2022/03/11 08:59:45;;;;;;;17.08;10.43;;;;;;;;;;5064109;28;20048;-67
2022/03/11 09:02:13;;;;;;;15.32;10.38;;;;;;;;;;5062516;28;20127;-68
2022/03/11 09:04:39;;;;;;;17.40;10.63;;;;;;;;;;5064178;28;20045;-68
2022/03/11 09:07:05;;;;;;;15.55;9.90;;;;;;;;;;5062370;28;20517;-67
2022/03/11 09:09:32;;;;;;;15.20;10.65;;;;;;;;;;5065277;28;20037;-67
2022/03/11 09:11:58;;;;;;;15.10;10.90;;;;;;;;;;5046057;28;20036;-68
2022/03/11 09:14:24;;;;;;;15.75;10.25;;;;;;;;;;5065053;28;20135;-68
2022/03/11 09:16:50;;;;;;;16.77;10.85;;;;;;;;;;5062538;28;20461;-68
2022/03/11 09:19:16;;;;;;;15.48;10.20;;;;;;;;;;5063510;28;20050;-68
2022/03/11 09:21:42;;;;;;;16.92;10.98;;;;;;;;;;5064107;28;20036;-68
2022/03/11 09:24:08;;;;;;;15.82;10.85;;;;;;;;;;5063399;28;20055;-67
2022/03/11 09:26:34;;;;;;;16.58;10.07;;;;;;;;;;5062015;28;20040;-67
2022/03/11 09:29:00;;;;;;;15.88;10.15;;;;;;;;;;5063532;28;20042;-67
2022/03/11 09:31:26;;;;;;;15.93;10.63;;;;;;;;;;5062085;28;20044;-68
2022/03/11 09:33:52;;;;;;;16.17;10.38;;;;;;;;;;5063681;28;20040;-67
2022/03/11 09:36:18;;;;;;;15.60;10.45;;;;;;;;;;5062328;28;20102;-67
2022/03/11 09:38:44;;;;;;;16.67;10.43;;;;;;;;;;5063217;28;20051;-68
2022/03/11 09:41:11;;;;;;;15.35;9.75;;;;;;;;;;5062416;28;20116;-68
2022/03/11 09:43:38;;;;;;;15.32;10.13;;;;;;;;;;5047136;28;20523;-67
2022/03/11 09:46:05;;;;;;;15.60;10.07;;;;;;;;;;5063427;28;20044;-68
2022/03/11 09:48:32;;;;;;;15.35;10.20;;;;;;;;;;5062609;28;20048;-67
2022/03/11 09:50:59;;;;;;;17.13;10.70;;;;;;;;;;5062029;28;20036;-68
2022/03/11 09:53:27;;;;;;;16.58;10.00;;;;;;;;;;5063145;28;20063;-67
2022/03/11 09:55:53;;;;;;;16.42;10.00;;;;;;;;;;5062357;28;20048;-68
2022/03/11 09:58:19;;;;;;;16.40;10.00;;;;;;;;;;5064338;28;20040;-68
2022/03/11 10:00:47;;;;;;;16.13;10.52;;;;;;;;;;5045850;28;20791;-68
2022/03/11 10:03:13;;;;;;;14.63;9.82;;;;;;;;;;5063124;28;20119;-67
2022/03/11 10:05:48;;;;;;;14.95;9.77;;;;;;;;;;5061911;28;20597;-67
2022/03/11 10:08:15;;;;;;;15.13;10.45;;;;;;;;;;5063920;28;20717;-67
2022/03/11 10:10:41;;;;;;;14.85;10.07;;;;;;;;;;5062225;28;20047;-67
2022/03/11 10:13:08;;;;;;;14.80;10.10;;;;;;;;;;5063110;28;20051;-68
2022/03/11 10:15:34;;;;;;;17.73;11.40;;;;;;;;;;5061860;28;20685;-68
2022/03/11 10:18:02;;;;;;;15.82;10.82;;;;;;;;;;5061804;28;20536;-67
2022/03/11 10:20:29;;;;;;;15.00;10.43;;;;;;;;;;5061950;28;20051;-68
2022/03/11 10:22:57;;;;;;;18.25;10.48;;;;;;;;;;5046351;28;20060;-68
2022/03/11 10:25:25;;;;;;;15.80;10.15;;;;;;;;;;5061851;28;20109;-68
2022/03/11 10:27:54;;;;;;;14.80;9.75;;;;;;;;;;5062305;28;20052;-67
2022/03/11 10:30:21;;;;;;;17.08;11.02;;;;;;;;;;5061493;28;20036;-68
2022/03/11 10:32:51;;;;;;;16.30;10.77;;;;;;;;;;5063278;28;20037;-67
2022/03/11 10:35:19;;;;;;;15.52;10.63;;;;;;;;;;5061828;28;20044;-67
2022/03/11 10:37:59;;;;;;;15.75;10.57;;;;;;;;;;5063172;28;20647;-67
2022/03/11 10:40:25;;;;;;;17.20;11.48;;;;;;;;;;5061766;28;20093;-67
2022/03/11 10:43:08;;;;;;;15.93;9.95;;;;;;;;;;5062586;28;20056;-68
2022/03/11 10:45:43;;;;;;;15.95;10.20;;;;;;;;;;5062752;28;20048;-67
2022/03/11 10:48:09;;;;;;;15.23;10.30;;;;;;;;;;5064763;28;20651;-67
2022/03/11 10:50:36;;;;;;;15.38;10.30;;;;;;;;;;5062263;28;20128;-67
2022/03/11 10:53:06;;;;;;;15.85;11.13;;;;;;;;;;5046374;28;20044;-67
2022/03/11 10:55:33;;;;;;;15.57;10.95;;;;;;;;;;5045434;28;20568;-67
2022/03/11 10:58:04;;;;;;;16.52;9.93;;;;;;;;;;5062419;28;20040;-67
2022/03/11 11:00:32;;;;;;;18.42;10.80;;;;;;;;;;5061311;28;20055;-68
2022/03/11 11:02:58;;;;;;;15.60;10.32;;;;;;;;;;5062082;28;20052;-67
2022/03/11 11:05:25;;;;;;;14.93;9.95;;;;;;;;;;5061530;28;20044;-68
2022/03/11 11:07:52;;;;;;;16.27;10.27;;;;;;;;;;5063710;28;20040;-68
2022/03/11 11:10:19;;;;;;;16.55;10.27;;;;;;;;;;5061781;28;20655;-67
2022/03/11 11:12:46;;;;;;;15.05;10.35;;;;;;;;;;5062126;28;20047;-68
2022/03/11 11:15:12;;;;;;;13.93;9.57;;;;;;;;;;5061469;28;20040;-68
2022/03/11 11:17:39;;;;;;;16.30;10.07;;;;;;;;;;5062175;28;20040;-67
2022/03/11 11:20:18;;;;;;;15.60;10.45;;;;;;;;;;5062601;28;20688;-68
2022/03/11 11:22:47;;;;;;;14.68;10.43;;;;;;;;;;5066512;28;20048;-68
2022/03/11 11:25:15;;;;;;;15.38;10.38;;;;;;;;;;5064507;28;20051;-68
2022/03/11 11:27:42;;;;;;;14.55;10.18;;;;;;;;;;5065590;28;20053;-68
2022/03/11 11:30:08;;;;;;;15.60;10.15;;;;;;;;;;5065055;28;20676;-68
2022/03/11 11:32:36;;;;;;;15.02;10.45;;;;;;;;;;5064977;28;20665;-68
2022/03/11 11:35:21;;;;;;;15.18;10.82;;;;;;;;;;5064455;28;20048;-67
2022/03/11 11:37:47;;;;;;;16.58;10.32;;;;;;;;;;5066332;28;20485;-67
2022/03/11 11:40:24;;;;;;;17.33;10.50;;;;;;;;;;5064732;28;20051;-68
2022/03/11 11:43:09;;;;;;;14.60;10.25;;;;;;;;;;5065213;28;20044;-67
2022/03/11 11:45:40;;;;;;;15.10;10.20;;;;;;;;;;5064566;28;20059;-68
2022/03/11 11:48:06;;;;;;;15.18;10.00;;;;;;;;;;5066997;28;20588;-68
2022/03/11 11:50:44;;;;;;;15.63;10.48;;;;;;;;;;5048782;28;20174;-67
2022/03/11 11:53:10;;;;;;;16.95;10.52;;;;;;;;;;5065859;28;20036;-68
2022/03/11 11:55:40;;;;;;;15.63;10.48;;;;;;;;;;5064057;28;20047;-68
2022/03/11 11:58:22;;;;;;;15.20;10.18;;;;;;;;;;5064357;28;20056;-68
2022/03/11 12:00:54;;;;;;;14.27;9.45;;;;;;;;;;5065877;28;20047;-68
2022/03/11 12:03:20;;;;;;;16.27;11.38;;;;;;;;;;5066428;28;20120;-67
2022/03/11 12:05:49;;;;;;;14.57;9.98;;;;;;;;;;5064827;28;20198;-67
2022/03/11 12:08:36;;;;;;;17.05;9.68;;;;;;;;;;5065456;28;20056;-67
2022/03/11 12:11:02;;;;;;;15.07;9.80;;;;;;;;;;5065130;28;20474;-68
2022/03/11 12:13:32;;;;;;;14.00;9.52;;;;;;;;;;5064650;28;20063;-68
2022/03/11 12:15:58;;;;;;;13.93;9.15;;;;;;;;;;5064072;28;20537;-68
2022/03/11 12:18:35;;;;;;;15.40;9.63;;;;;;;;;;5065272;28;20516;-68
2022/03/11 12:21:01;;;;;;;14.50;10.10;;;;;;;;;;5063382;28;20119;-68
2022/03/11 12:23:31;;;;;;;14.10;10.23;;;;;;;;;;5064591;28;20044;-68
2022/03/11 12:25:58;;;;;;;14.48;9.38;;;;;;;;;;5063438;28;20693;-68
2022/03/11 12:28:27;;;;;;;13.77;9.90;;;;;;;;;;5064576;28;20044;-68
2022/03/11 12:30:55;;;;;;;13.60;9.15;;;;;;;;;;5063518;28;20047;-67
2022/03/11 12:33:40;;;;;;;13.27;9.25;;;;;;;;;;5065947;28;20639;-68
2022/03/11 12:36:10;;;;;;;14.38;9.50;;;;;;;;;;5064693;28;20037;-67
2022/03/11 12:38:40;;;;;;;14.23;9.68;;;;;;;;;;5065119;28;20482;-67
2022/03/11 12:41:10;;;;;;;13.60;9.43;;;;;;;;;;5047117;28;20044;-68
2022/03/11 12:43:37;;;;;;;14.00;9.88;;;;;;;;;;5064094;28;20072;-68
2022/03/11 12:46:03;;;;;;;13.60;8.88;;;;;;;;;;5047357;28;20048;-67
2022/03/11 12:48:31;;;;;;;13.35;9.55;;;;;;;;;;5065016;28;20044;-67
2022/03/11 12:50:58;;;;;;;13.60;9.15;;;;;;;;;;5056646;28;20517;-67
2022/03/11 12:53:25;;;;;;;13.27;9.38;;;;;;;;;;5045608;28;20095;-67
2022/03/11 12:55:52;;;;;;;13.30;9.20;;;;;;;;;;5044103;28;20068;-67
2022/03/11 12:58:19;;;;;;;12.50;9.25;;;;;;;;;;5044095;28;20051;-67
2022/03/11 13:00:46;;;;;;;13.52;9.52;;;;;;;;;;5049936;28;20057;-68
2022/03/11 13:03:13;;;;;;;12.90;8.70;;;;;;;;;;5063218;28;20044;-68
2022/03/11 13:05:41;;;;;;;13.05;8.98;;;;;;;;;;5062717;28;20098;-67
2022/03/11 13:08:16;;;;;;;12.95;8.75;;;;;;;;;;5064517;28;20071;-67
2022/03/11 13:10:43;;;;;;;13.23;9.50;;;;;;;;;;5062254;28;20110;-68
2022/03/11 13:13:11;;;;;;;13.15;9.05;;;;;;;;;;5064909;28;20079;-67
2022/03/11 13:15:37;;;;;;;14.93;9.10;;;;;;;;;;5062839;28;20044;-68
2022/03/11 13:18:06;;;;;;;12.23;8.70;;;;;;;;;;5063762;28;20128;-67
2022/03/11 13:20:32;;;;;;;14.00;9.07;;;;;;;;;;5063884;28;20455;-67
2022/03/11 13:22:59;;;;;;;15.27;9.05;;;;;;;;;;5063677;28;20040;-67
2022/03/11 13:25:26;;;;;;;14.63;8.45;;;;;;;;;;5063711;28;20044;-67
2022/03/11 13:27:52;;;;;;;12.57;8.75;;;;;;;;;;5064183;28;20052;-67
2022/03/11 13:30:48;;;;;;;15.25;9.50;;;;;;;;;;5063384;28;20041;-68
2022/03/11 13:33:20;;;;;;;13.85;8.82;;;;;;;;;;5054773;28;20642;-67
2022/03/11 13:35:47;;;;;;;12.77;8.40;;;;;;;;;;5061810;28;20621;-67
2022/03/11 13:38:32;;;;;;;13.52;8.90;;;;;;;;;;5063763;28;20094;-67
2022/03/11 13:40:58;;;;;;;14.88;9.05;;;;;;;;;;5062387;28;20044;-67
2022/03/11 13:43:24;;;;;;;13.40;9.23;;;;;;;;;;5046259;28;20078;-67
2022/03/11 13:45:54;;;;;;;14.57;8.98;;;;;;;;;;5062824;28;20044;-68
2022/03/11 13:48:26;;;;;;;11.48;7.75;;;;;;;;;;5063282;28;20040;-67
2022/03/11 13:51:03;;;;;;;14.15;8.50;;;;;;;;;;5062364;28;20413;-67
2022/03/11 13:53:30;;;;;;;16.73;8.45;;;;;;;;;;5063405;28;20489;-67
2022/03/11 13:55:59;;;;;;;12.32;7.95;;;;;;;;;;5061122;28;20076;-68
2022/03/11 13:58:26;;;;;;;12.95;8.43;;;;;;;;;;5062845;28;20056;-67
2022/03/11 14:00:53;;;;;;;12.93;8.05;;;;;;;;;;5061276;28;20040;-68
2022/03/11 14:03:20;;;;;;;12.75;8.52;;;;;;;;;;5062532;28;20039;-68
2022/03/11 14:05:47;;;;;;;12.25;7.72;;;;;;;;;;5038270;28;20056;-67
2022/03/11 14:08:21;;;;;;;12.23;7.85;;;;;;;;;;5042636;28;20556;-68
2022/03/11 14:10:47;;;;;;;11.68;7.72;;;;;;;;;;5049075;28;20041;-67
2022/03/11 14:13:17;;;;;;;12.70;7.78;;;;;;;;;;5061968;28;20121;-68
2022/03/11 14:15:47;;;;;;;12.13;8.00;;;;;;;;;;5063265;28;20036;-68
2022/03/11 14:18:14;;;;;;;12.40;8.07;;;;;;;;;;5062413;28;20052;-67
2022/03/11 14:20:42;;;;;;;11.43;7.40;;;;;;;;;;5050536;28;20048;-68
2022/03/11 14:23:14;;;;;;;14.43;8.20;;;;;;;;;;5070656;28;20045;-68
2022/03/11 14:25:41;;;;;;;11.82;7.40;;;;;;;;;;5065063;28;20083;-68
2022/03/11 14:28:07;;;;;;;11.57;7.55;;;;;;;;;;5050443;28;20045;-68